createdAt,value
2022-09-13T00:01:29.960Z,4.25
2022-09-13T00:03:57.069Z,3.45
2022-09-13T00:06:24.176Z,3.28
2022-09-13T00:08:52.358Z,4.32
2022-09-13T00:11:25.030Z,3.88
2022-09-13T00:13:53.129Z,3.50
2022-09-13T00:16:22.115Z,5.35
2022-09-13T00:18:49.455Z,3.10
2022-09-13T00:21:19.175Z,2.88
2022-09-13T00:23:48.177Z,6.22
2022-09-13T00:26:18.206Z,5.75
2022-09-13T00:28:45.848Z,5.88
2022-09-13T00:31:13.039Z,4.90
2022-09-13T00:33:40.153Z,3.97
2022-09-13T00:36:09.851Z,4.57
2022-09-13T00:38:40.261Z,2.70
2022-09-13T00:41:11.154Z,5.15
2022-09-13T00:44:07.287Z,5.03
2022-09-13T00:46:46.741Z,3.60
2022-09-13T00:49:23.244Z,3.53
2022-09-13T00:51:58.075Z,5.07
2022-09-13T00:54:28.203Z,3.90
2022-09-13T00:56:57.736Z,2.92
2022-09-13T00:59:34.606Z,2.97
2022-09-13T01:02:03.941Z,4.68
2022-09-13T01:04:32.912Z,4.18
2022-09-13T01:07:04.437Z,3.67
2022-09-13T01:09:33.190Z,6.55
2022-09-13T01:12:25.640Z,2.97
2022-09-13T01:14:52.770Z,2.97
2022-09-13T01:17:19.884Z,5.05
2022-09-13T01:19:47.538Z,4.30
2022-09-13T01:22:33.252Z,3.08
2022-09-13T01:25:39.460Z,3.55
2022-09-13T01:28:12.498Z,2.78
2022-09-13T01:30:51.883Z,4.25
2022-09-13T01:33:46.604Z,4.38
2022-09-13T01:36:45.187Z,5.85
2022-09-13T01:39:18.158Z,2.38
2022-09-13T01:41:54.323Z,3.60
2022-09-13T01:44:44.420Z,2.55
2022-09-13T01:47:20.765Z,2.67
2022-09-13T01:49:57.114Z,5.18
2022-09-13T01:52:43.303Z,4.80
2022-09-13T01:55:20.671Z,2.50
2022-09-13T01:58:05.705Z,3.55
2022-09-13T02:00:38.244Z,5.30
2022-09-13T02:03:07.708Z,3.45
2022-09-13T02:05:42.373Z,2.80
2022-09-13T02:08:38.409Z,2.97
2022-09-13T02:11:12.863Z,3.03
2022-09-13T02:14:04.081Z,3.13
2022-09-13T02:16:34.700Z,3.10
2022-09-13T02:19:33.624Z,3.60
2022-09-13T02:22:03.924Z,2.42
2022-09-13T02:24:34.309Z,3.95
2022-09-13T02:27:08.703Z,6.00
2022-09-13T02:29:39.072Z,2.92
2022-09-13T02:32:07.857Z,2.38
2022-09-13T02:34:40.390Z,2.88
2022-09-13T02:37:09.421Z,9.82
2022-09-13T02:39:38.939Z,4.80
2022-09-13T02:42:20.346Z,2.72
2022-09-13T02:44:52.624Z,2.47
2022-09-13T02:47:41.228Z,2.38
2022-09-13T02:50:22.775Z,5.35
2022-09-13T02:52:56.466Z,2.88
2022-09-13T02:55:27.221Z,3.97
2022-09-13T02:58:11.243Z,3.50
2022-09-13T03:00:39.185Z,3.42
2022-09-13T03:03:10.749Z,2.95
2022-09-13T03:05:38.865Z,3.42
2022-09-13T03:08:07.992Z,2.67
2022-09-13T03:10:48.673Z,2.72
2022-09-13T03:13:16.269Z,10.23
2022-09-13T03:15:47.111Z,2.97
2022-09-13T03:18:17.473Z,3.35
2022-09-13T03:21:22.157Z,7.40
2022-09-13T03:24:29.373Z,4.97
2022-09-13T03:27:32.239Z,3.85
2022-09-13T03:30:05.356Z,3.03
2022-09-13T03:32:43.755Z,4.85
2022-09-13T03:35:40.637Z,4.35
2022-09-13T03:38:18.798Z,3.92
2022-09-13T03:41:02.607Z,3.58
2022-09-13T03:43:45.203Z,2.92
2022-09-13T03:46:16.519Z,3.05
2022-09-13T03:48:44.836Z,3.33
2022-09-13T03:51:13.277Z,4.18
2022-09-13T03:53:48.678Z,5.97
2022-09-13T03:56:19.180Z,4.05
2022-09-13T03:58:48.275Z,4.40
2022-09-13T04:01:23.563Z,5.95
2022-09-13T04:03:55.856Z,7.60
2022-09-13T04:06:24.320Z,3.45
2022-09-13T04:08:52.167Z,4.97
2022-09-13T04:12:23.126Z,3.50
2022-09-13T04:14:50.862Z,4.43
2022-09-13T04:17:18.924Z,8.43
2022-09-13T04:23:41.887Z,4.50
2022-09-13T04:26:13.413Z,5.32
2022-09-13T04:28:41.744Z,4.97
2022-09-13T04:31:09.363Z,5.70
2022-09-13T04:33:37.531Z,5.25
2022-09-13T04:36:05.129Z,6.07
2022-09-13T04:38:32.631Z,6.07
2022-09-13T04:41:00.236Z,6.18
2022-09-13T04:43:27.692Z,5.78
2022-09-13T04:45:55.484Z,5.15
2022-09-13T04:48:23.133Z,4.78
2022-09-13T04:51:06.223Z,6.75
2022-09-13T04:53:34.446Z,6.68
2022-09-13T04:56:02.860Z,4.85
2022-09-13T04:58:30.337Z,6.75
2022-09-13T05:01:04.962Z,5.57
2022-09-13T05:03:35.016Z,7.50
2022-09-13T05:06:15.344Z,6.07
2022-09-13T05:08:42.966Z,6.88
2022-09-13T05:11:10.775Z,4.60
2022-09-13T05:13:38.615Z,6.22
2022-09-13T05:16:07.117Z,5.85
2022-09-13T05:18:36.465Z,4.53
2022-09-13T05:21:05.378Z,8.80
2022-09-13T05:23:32.742Z,5.78
2022-09-13T05:26:05.150Z,7.38
2022-09-13T05:28:38.740Z,7.32
2022-09-13T05:31:09.661Z,7.93
2022-09-13T05:37:21.820Z,5.22
2022-09-13T05:40:10.299Z,4.53
2022-09-13T05:42:38.630Z,5.50
2022-09-13T05:45:07.546Z,8.75
2022-09-13T05:47:35.530Z,5.20
2022-09-13T05:50:15.423Z,7.07
2022-09-13T05:52:54.848Z,4.75
2022-09-13T05:55:23.747Z,6.00
2022-09-13T05:57:53.543Z,6.65
2022-09-13T06:00:21.232Z,7.43
2022-09-13T06:02:49.599Z,5.90
2022-09-13T06:05:17.875Z,8.25
2022-09-13T06:07:46.925Z,10.27
2022-09-13T06:10:14.630Z,6.35
2022-09-13T06:12:42.595Z,7.07
2022-09-13T06:15:11.678Z,7.18
2022-09-13T06:17:39.473Z,10.38
2022-09-13T06:20:11.276Z,13.73
2022-09-13T06:22:40.437Z,10.80
2022-09-13T06:25:09.721Z,13.68
2022-09-13T06:27:37.318Z,15.73
2022-09-13T06:30:05.764Z,15.48
2022-09-13T06:32:33.481Z,16.40
2022-09-13T06:35:01.317Z,11.70
2022-09-13T06:37:28.917Z,11.60
2022-09-13T06:39:56.568Z,10.60
2022-09-13T06:42:24.003Z,9.70
2022-09-13T06:44:51.371Z,13.32
2022-09-13T06:47:18.838Z,14.30
2022-09-13T06:49:46.801Z,12.05
2022-09-13T06:52:17.527Z,11.13
2022-09-13T06:54:45.368Z,9.25
2022-09-13T06:57:12.841Z,10.20
2022-09-13T06:59:40.332Z,10.48
2022-09-13T07:02:07.776Z,9.93
2022-09-13T07:04:35.294Z,9.23
2022-09-13T07:07:02.892Z,9.00
2022-09-13T07:13:59.291Z,8.65
2022-09-13T07:16:35.891Z,10.80
2022-09-13T07:19:05.892Z,10.70
2022-09-13T07:21:34.450Z,11.55
2022-09-13T07:24:02.172Z,9.55
2022-09-13T07:26:29.887Z,9.48
2022-09-13T07:29:00.371Z,8.93
2022-09-13T07:31:30.915Z,12.52
2022-09-13T07:34:00.849Z,10.20
2022-09-13T07:36:29.912Z,8.57
2022-09-13T07:38:58.340Z,10.68
2022-09-13T07:41:29.417Z,8.07
2022-09-13T07:43:59.293Z,10.73
2022-09-13T07:46:28.736Z,9.82
2022-09-13T07:48:57.390Z,9.95
2022-09-13T07:51:33.616Z,8.45
2022-09-13T07:54:03.017Z,9.05
2022-09-13T07:56:32.912Z,9.30
2022-09-13T07:59:02.422Z,10.68
2022-09-13T08:01:43.427Z,10.30
2022-09-13T08:04:13.825Z,9.85
2022-09-13T08:06:43.472Z,12.00
2022-09-13T08:09:14.417Z,10.38
2022-09-13T08:11:46.358Z,8.82
2022-09-13T08:14:15.982Z,15.30
2022-09-13T08:16:44.188Z,10.88
2022-09-13T08:19:17.192Z,10.57
2022-09-13T08:21:47.911Z,9.65
2022-09-13T08:24:22.341Z,10.73
2022-09-13T08:26:50.187Z,13.95
2022-09-13T08:29:18.266Z,12.65
2022-09-13T08:31:46.232Z,11.13
2022-09-13T08:34:15.427Z,14.93
2022-09-13T08:45:14.052Z,12.77
2022-09-13T08:47:48.459Z,9.70
2022-09-13T08:50:36.727Z,16.42
2022-09-13T08:53:19.534Z,12.70
2022-09-13T08:56:05.340Z,10.27
2022-09-13T09:01:37.635Z,13.00
2022-09-13T09:04:52.841Z,14.48
2022-09-13T09:07:27.308Z,12.05
2022-09-13T09:09:58.630Z,16.50
2022-09-13T09:12:42.364Z,10.40
2022-09-13T09:15:26.587Z,10.80
2022-09-13T09:18:24.644Z,10.50
2022-09-13T09:20:53.769Z,9.93
2022-09-13T09:23:25.160Z,10.93
2022-09-13T09:25:57.138Z,9.95
2022-09-13T09:28:25.526Z,13.10
2022-09-13T09:31:05.281Z,9.82
2022-09-13T09:33:57.258Z,10.23
2022-09-13T09:36:43.327Z,11.70
2022-09-13T09:39:12.897Z,7.88
2022-09-13T09:41:40.094Z,12.32
2022-09-13T09:44:20.440Z,12.60
2022-09-13T09:46:56.473Z,9.18
2022-09-13T09:49:51.028Z,9.85
2022-09-13T09:52:22.425Z,9.82
2022-09-13T09:54:50.434Z,14.00
2022-09-13T09:57:20.588Z,12.13
2022-09-13T09:59:47.686Z,8.52
2022-09-13T10:02:20.393Z,11.15
2022-09-13T10:04:57.545Z,8.57
2022-09-13T10:07:32.745Z,9.27
2022-09-13T10:10:23.354Z,6.40
2022-09-13T10:12:52.876Z,9.05
2022-09-13T10:15:21.801Z,9.60
2022-09-13T10:18:16.936Z,7.07
2022-09-13T10:21:17.148Z,9.35
2022-09-13T10:23:45.797Z,11.00
2022-09-13T10:26:18.143Z,7.95
2022-09-13T10:29:09.112Z,8.95
2022-09-13T10:31:39.110Z,9.13
2022-09-13T10:34:13.008Z,8.10
2022-09-13T10:36:53.528Z,10.15
2022-09-13T10:39:23.152Z,9.73
2022-09-13T10:41:53.658Z,10.35
2022-09-13T10:44:24.612Z,7.05
2022-09-13T10:46:52.384Z,10.60
2022-09-13T10:49:43.028Z,12.85
2022-09-13T10:53:01.070Z,19.05
2022-09-13T10:55:37.030Z,9.52
2022-09-13T10:58:07.295Z,13.35
2022-09-13T11:00:45.582Z,8.73
2022-09-13T11:03:33.039Z,11.23
2022-09-13T11:06:27.726Z,10.63
2022-09-13T11:09:17.474Z,13.35
2022-09-13T11:11:58.852Z,10.60
2022-09-13T11:14:41.184Z,10.55
2022-09-13T11:17:23.324Z,10.63
2022-09-13T11:20:02.928Z,11.68
2022-09-13T11:22:51.821Z,12.63
2022-09-13T11:25:53.037Z,8.73
2022-09-13T11:28:37.363Z,12.23
2022-09-13T11:31:07.691Z,12.35
2022-09-13T11:33:55.468Z,11.77
2022-09-13T11:36:28.766Z,10.82
2022-09-13T11:39:02.919Z,12.25
2022-09-13T11:41:32.833Z,10.75
2022-09-13T11:44:19.387Z,9.35
2022-09-13T11:47:15.723Z,10.25
2022-09-13T11:49:55.332Z,12.20
2022-09-13T11:52:37.727Z,11.32
2022-09-13T11:55:22.700Z,10.05
2022-09-13T11:57:55.157Z,8.95
2022-09-13T12:00:30.172Z,11.45
2022-09-13T12:03:23.787Z,14.02
2022-09-13T12:05:56.917Z,11.98
2022-09-13T12:08:23.945Z,13.13
2022-09-13T12:10:56.904Z,13.05
2022-09-13T12:13:30.193Z,12.93
2022-09-13T12:16:03.772Z,14.88
2022-09-13T12:18:57.141Z,12.23
2022-09-13T12:21:27.208Z,14.88
2022-09-13T12:24:00.327Z,16.23
2022-09-13T12:26:45.197Z,15.07
2022-09-13T12:29:19.539Z,15.40
2022-09-13T12:31:46.648Z,11.43
2022-09-13T12:34:24.985Z,12.52
2022-09-13T12:37:02.121Z,12.13
2022-09-13T12:39:48.813Z,12.98
2022-09-13T12:42:47.235Z,12.75
2022-09-13T12:45:33.623Z,15.80
2022-09-13T12:48:18.092Z,12.80
2022-09-13T12:51:03.659Z,15.07
2022-09-13T12:53:56.939Z,18.00
2022-09-13T12:56:45.868Z,21.40
2022-09-13T12:59:50.700Z,16.33
2022-09-13T13:02:31.919Z,16.73
2022-09-13T13:05:03.262Z,18.30
2022-09-13T13:07:32.653Z,15.23
2022-09-13T13:10:00.146Z,13.02
2022-09-13T13:12:38.452Z,13.07
2022-09-13T13:15:15.587Z,13.90
2022-09-13T13:17:48.902Z,14.93
2022-09-13T13:21:06.988Z,13.23
2022-09-13T13:23:37.337Z,16.73
2022-09-13T13:26:11.798Z,14.68
2022-09-13T13:28:44.983Z,20.47
2022-09-13T13:31:24.014Z,14.20
2022-09-13T13:33:53.997Z,15.95
2022-09-13T13:36:42.516Z,16.88
2022-09-13T13:39:33.748Z,18.70
2022-09-13T13:42:03.093Z,15.15
2022-09-13T13:44:31.868Z,14.68
2022-09-13T13:47:07.637Z,15.10
2022-09-13T13:49:46.161Z,17.35
2022-09-13T13:52:22.273Z,12.88
2022-09-13T13:54:55.500Z,11.60
2022-09-13T13:57:28.700Z,11.77
2022-09-13T14:00:11.331Z,12.93
2022-09-13T14:02:50.209Z,8.88
2022-09-13T14:05:42.556Z,10.77
2022-09-13T14:08:15.345Z,8.75
2022-09-13T14:10:50.354Z,8.77
2022-09-13T14:13:20.420Z,11.00
2022-09-13T14:15:53.213Z,8.68
2022-09-13T14:18:26.015Z,6.75
2022-09-13T14:21:00.835Z,8.82
2022-09-13T14:23:28.099Z,11.38
2022-09-13T14:25:57.626Z,9.95
2022-09-13T14:28:25.440Z,6.30
2022-09-13T14:30:55.866Z,6.25
2022-09-13T14:33:33.501Z,5.65
2022-09-13T14:36:06.228Z,6.22
2022-09-13T14:38:35.773Z,5.28
2022-09-13T14:41:15.513Z,4.97
2022-09-13T14:43:44.100Z,5.13
2022-09-13T14:46:20.309Z,5.50
2022-09-13T14:48:57.703Z,9.40
2022-09-13T14:51:46.146Z,5.65
2022-09-13T14:54:16.240Z,4.63
2022-09-13T14:56:49.975Z,6.05
2022-09-13T14:59:26.836Z,4.88
2022-09-13T15:01:54.168Z,6.03
2022-09-13T15:04:23.796Z,5.90
2022-09-13T15:07:19.730Z,6.18
2022-09-13T15:09:46.892Z,5.30
2022-09-13T15:12:26.331Z,4.72
2022-09-13T15:15:30.882Z,11.02
2022-09-13T15:18:00.361Z,5.60
2022-09-13T15:20:29.832Z,6.15
2022-09-13T15:22:57.552Z,4.22
2022-09-13T15:25:29.415Z,6.05
2022-09-13T15:27:57.438Z,7.53
2022-09-13T15:30:24.521Z,4.97
2022-09-13T15:33:24.959Z,4.65
2022-09-13T15:35:54.533Z,9.40
2022-09-13T15:38:30.125Z,9.43
2022-09-13T15:41:03.700Z,4.57
2022-09-13T15:43:31.310Z,6.05
2022-09-13T15:45:59.493Z,8.25
2022-09-13T15:48:32.465Z,7.50
2022-09-13T15:51:13.839Z,5.30
2022-09-13T15:53:44.353Z,6.35
2022-09-13T15:56:17.523Z,6.90
2022-09-13T15:58:44.610Z,5.97
2022-09-13T16:01:13.204Z,5.75
2022-09-13T16:03:40.502Z,4.68
2022-09-13T16:06:09.224Z,7.25
2022-09-13T16:08:37.081Z,7.30
2022-09-13T16:11:05.360Z,4.78
2022-09-13T16:13:32.631Z,8.20
2022-09-13T16:16:00.678Z,5.65
2022-09-13T16:18:27.925Z,5.28
2022-09-13T16:20:55.014Z,6.65
2022-09-13T16:23:22.094Z,5.07
2022-09-13T16:25:53.929Z,5.28
2022-09-13T16:28:21.260Z,7.20
2022-09-13T16:30:48.618Z,5.30
2022-09-13T16:33:15.684Z,5.60
2022-09-13T16:35:42.769Z,5.60
2022-09-13T16:38:10.537Z,7.65
2022-09-13T16:40:42.256Z,5.25
2022-09-13T16:43:09.407Z,5.18
2022-09-13T16:45:41.056Z,5.45
2022-09-13T16:48:08.471Z,5.45
2022-09-13T16:50:38.761Z,6.22
2022-09-13T16:53:05.934Z,4.93
2022-09-13T16:55:33.165Z,4.97
2022-09-13T16:58:00.296Z,6.50
2022-09-13T17:00:28.739Z,5.13
2022-09-13T17:02:56.771Z,4.93
2022-09-13T17:05:24.549Z,4.93
2022-09-13T17:07:53.113Z,5.95
2022-09-13T17:10:20.804Z,5.20
2022-09-13T17:12:48.174Z,5.38
2022-09-13T17:15:15.295Z,4.63
2022-09-13T17:17:42.420Z,6.28
2022-09-13T17:20:12.256Z,5.13
2022-09-13T17:22:39.997Z,5.90
2022-09-13T17:25:07.955Z,4.28
2022-09-13T17:27:35.377Z,6.10
2022-09-13T17:30:04.892Z,3.85
2022-09-13T17:32:32.151Z,5.80
2022-09-13T17:34:59.345Z,5.03
2022-09-13T17:37:26.841Z,5.00
2022-09-13T17:39:54.043Z,7.72
2022-09-13T17:42:23.372Z,5.07
2022-09-13T17:44:51.014Z,5.10
2022-09-13T17:47:18.137Z,6.00
2022-09-13T17:49:46.572Z,5.13
2022-09-13T17:52:14.208Z,5.55
2022-09-13T17:54:41.373Z,4.45
2022-09-13T17:57:11.933Z,4.65
2022-09-13T17:59:39.568Z,16.45
2022-09-13T18:02:07.188Z,8.75
2022-09-13T18:04:34.286Z,5.60
2022-09-13T18:07:01.412Z,4.30
2022-09-13T18:09:28.773Z,5.13
2022-09-13T18:11:55.978Z,4.35
2022-09-13T18:14:24.333Z,4.18
2022-09-13T18:16:55.639Z,4.75
2022-09-13T18:19:44.329Z,4.82
2022-09-13T18:22:10.472Z,4.50
2022-09-13T18:24:37.591Z,6.15
2022-09-13T18:27:05.442Z,3.70
2022-09-13T18:29:32.984Z,3.28
2022-09-13T18:32:00.271Z,4.07
2022-09-13T18:34:27.959Z,3.95
2022-09-13T18:36:56.022Z,5.20
2022-09-13T18:39:23.438Z,3.50
2022-09-13T18:41:50.512Z,3.90
2022-09-13T18:44:18.080Z,4.45
2022-09-13T18:46:46.518Z,4.18
2022-09-13T18:49:14.996Z,4.60
2022-09-13T18:51:43.724Z,5.75
2022-09-13T18:54:13.172Z,3.63
2022-09-13T18:56:41.389Z,4.65
2022-09-13T18:59:12.643Z,4.70
2022-09-13T19:01:42.288Z,6.72
2022-09-13T19:04:19.097Z,4.18
2022-09-13T19:06:48.527Z,5.35
2022-09-13T19:09:16.603Z,3.17
2022-09-13T19:11:47.702Z,4.80
2022-09-13T19:14:18.451Z,6.80
2022-09-13T19:16:45.750Z,4.85
2022-09-13T19:19:12.960Z,5.05
2022-09-13T19:21:40.743Z,3.88
2022-09-13T19:24:16.282Z,7.95
2022-09-13T19:26:44.810Z,4.35
2022-09-13T19:29:13.820Z,5.63
2022-09-13T19:31:43.753Z,4.88
2022-09-13T19:34:11.144Z,5.18
2022-09-13T19:36:39.307Z,5.75
2022-09-13T19:39:07.422Z,4.80
2022-09-13T19:41:35.136Z,5.40
2022-09-13T19:44:02.747Z,5.53
2022-09-13T19:46:36.335Z,8.32
2022-09-13T19:49:04.363Z,8.23
2022-09-13T19:51:36.490Z,7.57
2022-09-13T19:54:10.988Z,6.07
2022-09-13T19:56:42.843Z,6.90
2022-09-13T19:59:13.491Z,8.13
2022-09-13T20:01:42.371Z,4.32
2022-09-13T20:04:11.685Z,4.97
2022-09-13T20:06:44.213Z,6.38
2022-09-13T20:09:13.427Z,4.63
2022-09-13T20:11:44.981Z,6.70
2022-09-13T20:14:14.433Z,8.65
2022-09-13T20:16:42.767Z,7.70
2022-09-13T20:22:09.955Z,5.10
2022-09-13T20:24:37.409Z,5.30
2022-09-13T20:27:04.800Z,7.40
2022-09-13T20:29:32.008Z,9.43
2022-09-13T20:31:59.965Z,6.38
2022-09-13T20:34:27.266Z,5.13
2022-09-13T20:36:54.385Z,5.05
2022-09-13T20:39:21.652Z,8.15
2022-09-13T20:41:49.935Z,7.25
2022-09-13T20:44:17.463Z,4.40
2022-09-13T20:46:44.654Z,5.35
2022-09-13T20:49:11.816Z,4.20
2022-09-13T20:51:41.018Z,3.47
2022-09-13T20:54:08.282Z,4.00
2022-09-13T20:56:36.186Z,3.40
2022-09-13T20:59:04.037Z,4.60
2022-09-13T21:01:32.353Z,4.07
2022-09-13T21:04:00.054Z,7.65
2022-09-13T21:06:29.555Z,7.75
2022-09-13T21:08:59.699Z,9.05
2022-09-13T21:11:34.735Z,4.57
2022-09-13T21:14:06.362Z,3.40
2022-09-13T21:16:41.320Z,4.50
2022-09-13T21:19:09.098Z,3.65
2022-09-13T21:21:38.311Z,8.60
2022-09-13T21:24:09.548Z,6.28
2022-09-13T21:26:37.882Z,5.88
2022-09-13T21:29:05.276Z,7.72
2022-09-13T21:31:34.000Z,4.15
2022-09-13T21:34:04.179Z,5.82
2022-09-13T21:36:34.564Z,6.50
2022-09-13T21:39:02.324Z,5.70
2022-09-13T21:41:29.918Z,6.88
2022-09-13T21:43:57.237Z,7.60
2022-09-13T21:46:29.195Z,5.63
2022-09-13T21:48:59.668Z,5.95
2022-09-13T21:51:28.851Z,5.75
2022-09-13T21:53:58.918Z,5.70
2022-09-13T21:56:28.631Z,5.70
2022-09-13T21:59:00.805Z,6.40
2022-09-13T22:01:33.869Z,4.97
2022-09-13T22:04:01.775Z,6.40
2022-09-13T22:06:33.539Z,6.57
2022-09-13T22:09:04.305Z,7.85
2022-09-13T22:11:34.856Z,9.57
2022-09-13T22:14:02.545Z,7.47
2022-09-13T22:16:35.011Z,8.05
2022-09-13T22:19:13.030Z,5.97
2022-09-13T22:21:42.696Z,10.50
2022-09-13T22:24:13.928Z,9.32
2022-09-13T22:26:41.088Z,5.57
2022-09-13T22:29:09.688Z,19.27
2022-09-13T22:31:39.401Z,7.05
2022-09-13T22:34:07.558Z,12.15
2022-09-13T22:36:34.657Z,6.95
2022-09-13T22:39:01.805Z,6.05
2022-09-13T22:41:31.357Z,10.93
2022-09-13T22:43:59.597Z,10.38
2022-09-13T22:46:30.824Z,6.03
2022-09-13T22:48:57.989Z,8.25
2022-09-13T22:51:26.267Z,11.23
2022-09-13T22:53:54.040Z,5.40
2022-09-13T22:56:23.927Z,11.80
2022-09-13T22:58:55.986Z,6.30
2022-09-13T23:01:24.240Z,6.07
2022-09-13T23:03:51.898Z,4.95
2022-09-13T23:06:22.550Z,7.35
2022-09-13T23:08:51.391Z,4.90
2022-09-13T23:11:24.175Z,6.70
2022-09-13T23:13:52.838Z,6.78
2022-09-13T23:16:28.352Z,7.18
2022-09-13T23:21:25.841Z,10.05
2022-09-13T23:23:54.080Z,7.00
2022-09-13T23:26:23.300Z,7.90
2022-09-13T23:28:59.690Z,5.70
2022-09-13T23:31:32.552Z,6.68
2022-09-13T23:34:01.909Z,7.80
2022-09-13T23:36:31.477Z,13.70
2022-09-13T23:38:59.175Z,8.35
2022-09-13T23:41:26.303Z,10.27
2022-09-13T23:43:53.882Z,9.88
2022-09-13T23:46:21.607Z,7.90
2022-09-13T23:48:49.000Z,7.95
2022-09-13T23:51:22.993Z,8.35
2022-09-13T23:53:52.008Z,10.15
2022-09-13T23:56:19.564Z,7.18
2022-09-13T23:58:46.732Z,10.13
